Time;durP1;ratioP1;P1;durP2;ratioP2;P2;SDS_P1;SDS_P2;PMS_P1;PMS_P2;Temp;Humidity;BMP_temperature;BMP_pressure;BME280_temperature;BME280_humidity;BME280_pressure;Samples;Min_cycle;Max_cycle;Signal;HPM_P1;HPM_P2
2024/01/30 00:00:39;;;;;;;16.48;10.65;;;;;;;;;;5103526;27;20431;-60
2024/01/30 00:03:06;;;;;;;19.45;11.82;;;;;;;;;;5104354;27;20055;-62
2024/01/30 00:05:32;;;;;;;15.48;10.65;;;;;;;;;;5104522;27;20789;-62
2024/01/30 00:07:59;;;;;;;16.98;10.95;;;;;;;;;;5103558;27;20158;-61
2024/01/30 00:10:25;;;;;;;18.30;11.05;;;;;;;;;;5104601;28;20061;-60
2024/01/30 00:12:52;;;;;;;15.98;11.65;;;;;;;;;;5103359;28;20052;-60
2024/01/30 00:15:19;;;;;;;18.42;11.07;;;;;;;;;;5104396;28;20500;-61
2024/01/30 00:17:45;;;;;;;15.77;11.35;;;;;;;;;;5103447;27;20469;-60
2024/01/30 00:20:12;;;;;;;17.35;10.95;;;;;;;;;;5104166;27;20059;-62
2024/01/30 00:22:38;;;;;;;15.27;11.07;;;;;;;;;;5103387;28;20652;-62
2024/01/30 00:25:05;;;;;;;15.52;11.27;;;;;;;;;;5104110;27;20048;-62
2024/01/30 00:27:31;;;;;;;15.80;11.30;;;;;;;;;;5103256;27;20082;-61
2024/01/30 00:29:57;;;;;;;16.90;11.57;;;;;;;;;;5104184;27;20058;-62
2024/01/30 00:32:24;;;;;;;16.33;11.90;;;;;;;;;;5103479;28;20552;-62
2024/01/30 00:34:51;;;;;;;15.10;11.77;;;;;;;;;;5103346;27;20052;-62
2024/01/30 00:37:17;;;;;;;20.25;11.68;;;;;;;;;;5104446;27;20507;-62
2024/01/30 00:39:44;;;;;;;13.98;10.95;;;;;;;;;;5103647;27;20052;-62
2024/01/30 00:42:10;;;;;;;17.88;12.10;;;;;;;;;;5103476;27;20131;-62
2024/01/30 00:44:38;;;;;;;22.23;11.95;;;;;;;;;;5103260;27;20102;-62
2024/01/30 00:47:05;;;;;;;17.27;12.52;;;;;;;;;;5103935;27;20878;-62
2024/01/30 00:49:31;;;;;;;14.63;11.30;;;;;;;;;;5103299;27;20048;-61
2024/01/30 00:51:58;;;;;;;22.58;11.38;;;;;;;;;;5102949;27;20043;-62
2024/01/30 00:54:24;;;;;;;17.25;11.45;;;;;;;;;;5103784;27;20055;-62
2024/01/30 00:56:51;;;;;;;22.23;11.80;;;;;;;;;;5102939;27;20075;-62
2024/01/30 00:59:17;;;;;;;18.27;11.93;;;;;;;;;;5103876;27;20052;-62
2024/01/30 01:01:43;;;;;;;16.17;11.75;;;;;;;;;;5102918;27;20109;-61
2024/01/30 01:04:11;;;;;;;21.02;12.35;;;;;;;;;;5103351;28;20048;-62
2024/01/30 01:06:38;;;;;;;15.98;11.85;;;;;;;;;;5104542;27;20060;-62
2024/01/30 01:09:04;;;;;;;13.65;11.05;;;;;;;;;;5104054;27;20059;-62
2024/01/30 01:11:31;;;;;;;18.92;11.80;;;;;;;;;;5102898;27;20499;-62
2024/01/30 01:13:57;;;;;;;16.17;11.48;;;;;;;;;;5103403;28;20052;-62
2024/01/30 01:16:24;;;;;;;15.70;11.63;;;;;;;;;;5103880;27;20052;-61
2024/01/30 01:18:51;;;;;;;18.85;12.18;;;;;;;;;;5103841;28;20055;-62
2024/01/30 01:21:17;;;;;;;18.63;13.05;;;;;;;;;;5103686;28;20052;-62
2024/01/30 01:23:44;;;;;;;17.63;11.98;;;;;;;;;;5104021;27;20052;-62
2024/01/30 01:26:10;;;;;;;19.30;12.50;;;;;;;;;;5104338;28;20080;-62
2024/01/30 01:28:37;;;;;;;20.23;12.57;;;;;;;;;;5103017;28;20058;-62
2024/01/30 01:31:05;;;;;;;17.63;12.00;;;;;;;;;;5102623;28;20048;-62
2024/01/30 01:33:32;;;;;;;19.00;12.80;;;;;;;;;;5104660;27;20055;-62
2024/01/30 01:35:59;;;;;;;20.17;12.50;;;;;;;;;;5102811;27;20145;-60
2024/01/30 01:38:26;;;;;;;20.30;13.10;;;;;;;;;;5104386;27;20557;-62
2024/01/30 01:40:52;;;;;;;18.33;13.07;;;;;;;;;;5105056;27;20542;-62
2024/01/30 01:43:19;;;;;;;17.48;12.55;;;;;;;;;;5107168;27;20167;-62
2024/01/30 01:45:45;;;;;;;15.77;11.90;;;;;;;;;;5105518;28;20113;-62
2024/01/30 01:48:12;;;;;;;18.88;12.40;;;;;;;;;;5105719;27;20058;-62
2024/01/30 01:50:39;;;;;;;19.00;12.45;;;;;;;;;;5106280;27;20627;-60
2024/01/30 01:53:07;;;;;;;19.85;12.73;;;;;;;;;;5106383;27;20052;-62
2024/01/30 01:55:35;;;;;;;18.60;12.65;;;;;;;;;;5106197;27;20418;-60
2024/01/30 01:58:01;;;;;;;19.55;12.88;;;;;;;;;;5105907;27;20194;-62
2024/01/30 02:00:28;;;;;;;15.43;12.05;;;;;;;;;;5105461;27;20601;-62
2024/01/30 02:02:54;;;;;;;17.98;12.27;;;;;;;;;;5105827;28;20143;-62
2024/01/30 02:05:21;;;;;;;17.60;11.88;;;;;;;;;;5106761;28;20044;-62
2024/01/30 02:07:48;;;;;;;14.80;10.98;;;;;;;;;;5106030;27;20102;-62
2024/01/30 02:10:14;;;;;;;14.82;11.68;;;;;;;;;;5105715;27;20131;-62
2024/01/30 02:12:42;;;;;;;16.90;12.40;;;;;;;;;;5106011;27;20414;-62
2024/01/30 02:15:08;;;;;;;17.10;12.00;;;;;;;;;;5106192;28;20054;-62
2024/01/30 02:17:35;;;;;;;16.80;12.13;;;;;;;;;;5105825;28;20044;-61
2024/01/30 02:20:01;;;;;;;16.30;11.55;;;;;;;;;;5105434;28;20058;-62
2024/01/30 02:22:28;;;;;;;19.60;12.43;;;;;;;;;;5106464;27;20435;-62
2024/01/30 02:24:55;;;;;;;15.23;11.23;;;;;;;;;;5106650;27;20137;-61
2024/01/30 02:27:21;;;;;;;16.00;12.13;;;;;;;;;;5108179;27;20270;-62
2024/01/30 02:29:47;;;;;;;19.60;12.38;;;;;;;;;;5107876;27;20052;-62
2024/01/30 02:32:14;;;;;;;15.90;10.90;;;;;;;;;;5108251;27;20408;-61
2024/01/30 02:34:40;;;;;;;16.00;11.63;;;;;;;;;;5108275;27;20060;-61
2024/01/30 02:37:07;;;;;;;15.15;11.60;;;;;;;;;;5108108;27;20552;-61
2024/01/30 02:39:33;;;;;;;15.50;11.23;;;;;;;;;;5104719;28;20417;-61
2024/01/30 02:42:00;;;;;;;18.92;11.05;;;;;;;;;;5105791;27;20083;-62
2024/01/30 02:44:26;;;;;;;16.08;11.40;;;;;;;;;;5104911;27;20078;-61
2024/01/30 02:46:54;;;;;;;17.88;11.52;;;;;;;;;;5106345;27;20558;-62
2024/01/30 02:49:21;;;;;;;17.40;11.48;;;;;;;;;;5105495;27;20507;-62
2024/01/30 02:51:47;;;;;;;21.20;12.27;;;;;;;;;;5105145;27;20056;-61
2024/01/30 02:54:14;;;;;;;14.82;10.40;;;;;;;;;;5105264;27;20052;-61
2024/01/30 02:56:40;;;;;;;14.63;10.73;;;;;;;;;;5106211;27;20052;-58
2024/01/30 02:59:06;;;;;;;15.63;10.65;;;;;;;;;;5105066;27;20067;-62
2024/01/30 03:01:33;;;;;;;15.73;12.23;;;;;;;;;;5106502;27;20083;-61
2024/01/30 03:03:59;;;;;;;16.63;11.25;;;;;;;;;;5105214;27;20057;-62
2024/01/30 03:06:26;;;;;;;14.18;10.25;;;;;;;;;;5105741;27;20059;-61
2024/01/30 03:08:52;;;;;;;17.70;11.35;;;;;;;;;;5105766;28;20074;-60
2024/01/30 03:11:18;;;;;;;17.33;11.68;;;;;;;;;;5106110;27;20530;-61
2024/01/30 03:13:45;;;;;;;15.70;11.27;;;;;;;;;;5105790;27;20059;-61
2024/01/30 03:16:11;;;;;;;18.88;11.48;;;;;;;;;;5105943;27;20044;-62
2024/01/30 03:18:38;;;;;;;15.00;10.85;;;;;;;;;;5105998;27;20105;-63
2024/01/30 03:21:04;;;;;;;16.83;12.30;;;;;;;;;;5105424;28;20048;-61
2024/01/30 03:23:32;;;;;;;18.08;13.40;;;;;;;;;;5105408;27;20056;-60
2024/01/30 03:25:58;;;;;;;23.30;14.85;;;;;;;;;;5105537;28;20483;-60
2024/01/30 03:28:25;;;;;;;23.85;15.13;;;;;;;;;;5105320;28;20058;-61
2024/01/30 03:30:51;;;;;;;18.88;13.77;;;;;;;;;;5105659;28;20109;-60
2024/01/30 03:33:17;;;;;;;21.50;14.07;;;;;;;;;;5105393;27;20047;-61
2024/01/30 03:35:44;;;;;;;18.02;13.32;;;;;;;;;;5104931;27;20139;-61
2024/01/30 03:38:11;;;;;;;19.92;13.75;;;;;;;;;;5105107;27;20052;-62
2024/01/30 03:40:38;;;;;;;17.25;12.85;;;;;;;;;;5105024;27;20522;-62
2024/01/30 03:43:05;;;;;;;20.60;12.85;;;;;;;;;;5105218;27;20047;-62
2024/01/30 03:45:32;;;;;;;17.80;13.25;;;;;;;;;;5104873;27;20052;-62
2024/01/30 03:47:58;;;;;;;19.95;13.20;;;;;;;;;;5104771;27;20056;-61
2024/01/30 03:50:24;;;;;;;24.27;13.65;;;;;;;;;;5104131;27;20510;-62
2024/01/30 03:52:51;;;;;;;17.13;12.45;;;;;;;;;;5104964;28;20055;-62
2024/01/30 03:55:17;;;;;;;18.73;12.23;;;;;;;;;;5104561;27;20102;-61
2024/01/30 03:57:43;;;;;;;19.48;12.77;;;;;;;;;;5102718;28;20562;-61
2024/01/30 04:00:10;;;;;;;16.80;11.52;;;;;;;;;;5103995;27;20055;-62
2024/01/30 04:02:36;;;;;;;14.93;11.45;;;;;;;;;;5104602;27;20487;-61
2024/01/30 04:05:03;;;;;;;16.20;11.70;;;;;;;;;;5103870;27;20139;-61
2024/01/30 04:07:30;;;;;;;14.90;10.52;;;;;;;;;;5104482;27;20052;-62
2024/01/30 04:09:56;;;;;;;17.50;11.63;;;;;;;;;;5103942;27;20044;-60
2024/01/30 04:12:23;;;;;;;20.85;11.90;;;;;;;;;;5104279;27;20059;-61
2024/01/30 04:14:49;;;;;;;17.33;10.88;;;;;;;;;;5104559;27;20122;-61
2024/01/30 04:17:16;;;;;;;15.38;10.45;;;;;;;;;;5104330;27;20101;-60
2024/01/30 04:19:42;;;;;;;15.63;10.02;;;;;;;;;;5103748;27;20052;-61
2024/01/30 04:22:09;;;;;;;20.92;10.23;;;;;;;;;;5104943;28;20048;-62
2024/01/30 04:24:35;;;;;;;14.52;10.63;;;;;;;;;;5102324;27;20503;-61
2024/01/30 04:27:02;;;;;;;14.00;9.98;;;;;;;;;;5103338;27;20502;-62
2024/01/30 04:29:28;;;;;;;16.60;10.25;;;;;;;;;;5103904;27;20086;-61
2024/01/30 04:31:54;;;;;;;15.95;10.10;;;;;;;;;;5103355;27;20105;-61
2024/01/30 04:34:21;;;;;;;14.95;10.23;;;;;;;;;;5104174;28;20098;-61
2024/01/30 04:36:47;;;;;;;12.90;9.88;;;;;;;;;;5103441;28;20135;-62
2024/01/30 04:39:14;;;;;;;16.83;10.25;;;;;;;;;;5103920;27;20062;-61
2024/01/30 04:41:40;;;;;;;16.55;10.02;;;;;;;;;;5103459;27;20079;-61
2024/01/30 04:44:06;;;;;;;14.65;10.05;;;;;;;;;;5103449;27;20056;-60
2024/01/30 04:46:34;;;;;;;14.90;9.10;;;;;;;;;;5104239;27;20052;-61
2024/01/30 04:49:01;;;;;;;16.08;9.90;;;;;;;;;;5102749;27;20186;-61
2024/01/30 04:51:27;;;;;;;13.63;8.75;;;;;;;;;;5102931;27;20052;-61
2024/01/30 04:53:53;;;;;;;11.05;9.00;;;;;;;;;;5103627;27;20052;-61
2024/01/30 04:56:20;;;;;;;12.70;9.10;;;;;;;;;;5104533;27;20055;-61
2024/01/30 04:58:46;;;;;;;13.13;9.65;;;;;;;;;;5102469;27;20517;-61
2024/01/30 05:01:16;;;;;;;12.90;8.90;;;;;;;;;;5103494;27;20050;-60
2024/01/30 05:03:43;;;;;;;12.65;8.43;;;;;;;;;;5103351;27;20055;-61
2024/01/30 05:06:09;;;;;;;12.25;9.25;;;;;;;;;;5103869;27;20063;-61
2024/01/30 05:08:38;;;;;;;12.57;9.43;;;;;;;;;;5105504;27;20134;-61
2024/01/30 05:11:05;;;;;;;11.23;8.60;;;;;;;;;;5106628;27;20060;-61
2024/01/30 05:13:32;;;;;;;17.23;9.48;;;;;;;;;;5107005;27;20079;-61
2024/01/30 05:15:58;;;;;;;13.20;8.55;;;;;;;;;;5106928;27;20052;-61
2024/01/30 05:18:24;;;;;;;16.48;9.30;;;;;;;;;;5106464;27;20061;-61
2024/01/30 05:20:51;;;;;;;15.70;9.35;;;;;;;;;;5106874;27;20506;-62
2024/01/30 05:23:18;;;;;;;15.50;10.43;;;;;;;;;;5107229;27;20052;-61
2024/01/30 05:25:44;;;;;;;17.35;9.23;;;;;;;;;;5106453;27;20055;-61
2024/01/30 05:28:10;;;;;;;17.42;8.73;;;;;;;;;;5107063;27;20059;-62
2024/01/30 05:30:37;;;;;;;14.60;9.18;;;;;;;;;;5106439;27;20577;-62
2024/01/30 05:33:03;;;;;;;11.52;8.52;;;;;;;;;;5106227;27;20060;-61
2024/01/30 05:35:30;;;;;;;15.75;9.00;;;;;;;;;;5107039;27;20050;-61
2024/01/30 05:37:56;;;;;;;14.30;8.43;;;;;;;;;;5106074;27;20056;-61
2024/01/30 05:40:23;;;;;;;15.80;9.35;;;;;;;;;;5108570;27;20772;-61
2024/01/30 05:42:50;;;;;;;10.68;8.40;;;;;;;;;;5109051;27;20056;-62
2024/01/30 05:45:16;;;;;;;12.57;9.05;;;;;;;;;;5108927;27;20056;-61
2024/01/30 05:47:43;;;;;;;14.13;9.73;;;;;;;;;;5108492;27;20048;-58
2024/01/30 05:50:09;;;;;;;12.82;8.57;;;;;;;;;;5108836;27;20205;-61
2024/01/30 05:52:36;;;;;;;14.88;9.00;;;;;;;;;;5108811;27;20052;-62
2024/01/30 05:55:03;;;;;;;12.98;8.55;;;;;;;;;;5106912;27;20079;-62
2024/01/30 05:57:29;;;;;;;12.95;8.18;;;;;;;;;;5107039;27;20052;-61
2024/01/30 05:59:56;;;;;;;14.38;8.57;;;;;;;;;;5107622;27;20126;-61
2024/01/30 06:02:22;;;;;;;14.70;8.82;;;;;;;;;;5092130;27;20048;-60
2024/01/30 06:04:49;;;;;;;13.15;9.10;;;;;;;;;;5095809;27;20174;-60
2024/01/30 06:07:17;;;;;;;17.25;9.05;;;;;;;;;;5096591;28;20044;-61
2024/01/30 06:09:45;;;;;;;13.55;8.65;;;;;;;;;;5108604;27;20059;-60
2024/01/30 06:12:12;;;;;;;14.85;8.75;;;;;;;;;;5108612;27;20048;-62
2024/01/30 06:14:38;;;;;;;12.00;8.85;;;;;;;;;;5107181;27;20062;-62
2024/01/30 06:17:05;;;;;;;14.43;9.65;;;;;;;;;;5104252;28;20052;-61
2024/01/30 06:19:32;;;;;;;13.32;8.80;;;;;;;;;;5097101;27;20056;-61
2024/01/30 06:21:58;;;;;;;11.77;8.35;;;;;;;;;;5086792;27;20049;-61
2024/01/30 06:24:25;;;;;;;15.63;8.00;;;;;;;;;;5106416;27;20135;-62
2024/01/30 06:26:51;;;;;;;13.32;8.48;;;;;;;;;;5104338;27;20052;-62
2024/01/30 06:29:18;;;;;;;12.68;8.52;;;;;;;;;;5105821;27;20105;-61
2024/01/30 06:31:45;;;;;;;12.70;8.88;;;;;;;;;;5105252;27;20109;-62
2024/01/30 06:34:12;;;;;;;13.60;8.57;;;;;;;;;;5099851;27;20067;-61
2024/01/30 06:36:38;;;;;;;16.30;8.45;;;;;;;;;;5092640;27;20059;-61
2024/01/30 06:39:05;;;;;;;13.30;8.48;;;;;;;;;;5103395;27;20146;-62
2024/01/30 06:41:31;;;;;;;13.23;8.10;;;;;;;;;;5105456;27;20097;-59
2024/01/30 06:43:58;;;;;;;12.18;8.05;;;;;;;;;;5103996;27;20435;-60
2024/01/30 06:46:24;;;;;;;12.55;8.63;;;;;;;;;;5099096;28;20143;-62
2024/01/30 06:48:51;;;;;;;14.40;8.95;;;;;;;;;;5105437;27;20129;-61
2024/01/30 06:51:17;;;;;;;11.45;7.88;;;;;;;;;;5103194;27;20138;-61
2024/01/30 06:53:44;;;;;;;11.30;8.55;;;;;;;;;;5110400;27;20058;-61
2024/01/30 06:56:10;;;;;;;14.05;8.02;;;;;;;;;;5118399;27;20491;-61
2024/01/30 06:58:37;;;;;;;16.40;8.57;;;;;;;;;;5107743;27;20063;-61
2024/01/30 07:01:03;;;;;;;13.63;8.70;;;;;;;;;;5104553;27;20048;-61
2024/01/30 07:03:30;;;;;;;12.38;8.15;;;;;;;;;;5104912;27;20052;-61
2024/01/30 07:05:56;;;;;;;13.05;7.78;;;;;;;;;;5110626;27;20060;-61
2024/01/30 07:08:23;;;;;;;12.85;8.27;;;;;;;;;;5101147;27;20531;-61
2024/01/30 07:10:49;;;;;;;12.13;8.65;;;;;;;;;;5121723;27;20134;-61
2024/01/30 07:13:16;;;;;;;13.35;8.68;;;;;;;;;;5104598;27;20526;-61
2024/01/30 07:15:43;;;;;;;14.02;8.40;;;;;;;;;;5104921;27;20052;-60
2024/01/30 07:18:09;;;;;;;13.20;7.90;;;;;;;;;;5104022;27;20800;-62
2024/01/30 07:20:36;;;;;;;9.25;8.10;;;;;;;;;;5100853;27;20586;-61
2024/01/30 07:23:03;;;;;;;17.58;8.30;;;;;;;;;;5105270;27;20551;-61
2024/01/30 07:25:29;;;;;;;13.30;8.25;;;;;;;;;;5093487;27;20060;-61
2024/01/30 07:27:57;;;;;;;11.48;7.80;;;;;;;;;;5097493;27;20045;-60
2024/01/30 07:30:24;;;;;;;12.35;8.38;;;;;;;;;;5085477;28;20056;-61
2024/01/30 07:32:50;;;;;;;12.70;8.00;;;;;;;;;;5094709;27;20056;-61
2024/01/30 07:35:16;;;;;;;12.38;8.93;;;;;;;;;;5103537;27;20516;-61
2024/01/30 07:37:43;;;;;;;12.60;7.55;;;;;;;;;;5107253;27;20551;-60
2024/01/30 07:40:09;;;;;;;11.95;8.70;;;;;;;;;;5104263;27;20055;-60
2024/01/30 07:42:36;;;;;;;10.48;7.70;;;;;;;;;;5103905;27;20055;-61
2024/01/30 07:45:02;;;;;;;15.95;8.43;;;;;;;;;;5104806;27;20063;-61
2024/01/30 07:47:28;;;;;;;11.10;7.88;;;;;;;;;;5105477;27;20056;-61
2024/01/30 07:49:55;;;;;;;12.10;8.18;;;;;;;;;;5105847;27;20450;-62
2024/01/30 07:52:22;;;;;;;10.88;7.47;;;;;;;;;;5102821;27;20113;-61
2024/01/30 07:54:49;;;;;;;11.88;7.85;;;;;;;;;;5095686;28;20055;-60
2024/01/30 07:57:16;;;;;;;13.52;8.15;;;;;;;;;;5100055;27;20474;-60
2024/01/30 07:59:46;;;;;;;13.82;8.75;;;;;;;;;;5095119;27;20057;-61
2024/01/30 08:02:13;;;;;;;12.52;7.80;;;;;;;;;;5111764;27;20044;-62
2024/01/30 08:04:40;;;;;;;11.55;7.78;;;;;;;;;;5104168;27;20063;-60
2024/01/30 08:07:06;;;;;;;9.70;7.13;;;;;;;;;;5103676;27;20141;-61
2024/01/30 08:09:33;;;;;;;12.57;8.13;;;;;;;;;;5103835;28;20048;-60
2024/01/30 08:11:59;;;;;;;12.35;8.05;;;;;;;;;;5103623;27;20060;-61
2024/01/30 08:14:26;;;;;;;14.60;6.75;;;;;;;;;;5102798;27;20506;-61
2024/01/30 08:16:52;;;;;;;15.68;8.13;;;;;;;;;;5100821;27;20258;-59
2024/01/30 08:19:19;;;;;;;9.98;7.28;;;;;;;;;;5098357;27;20053;-61
2024/01/30 08:21:45;;;;;;;17.55;7.63;;;;;;;;;;5085238;27;20159;-61
2024/01/30 08:24:12;;;;;;;15.35;8.52;;;;;;;;;;5102209;27;20105;-61
2024/01/30 08:26:38;;;;;;;12.68;8.38;;;;;;;;;;5103446;27;20053;-61
2024/01/30 08:29:04;;;;;;;13.90;7.70;;;;;;;;;;5104237;27;20056;-61
2024/01/30 08:31:31;;;;;;;12.00;7.72;;;;;;;;;;5106571;27;20062;-60
2024/01/30 08:33:58;;;;;;;12.55;7.55;;;;;;;;;;5103517;27;20048;-61
2024/01/30 08:36:25;;;;;;;12.73;8.85;;;;;;;;;;5104114;27;20129;-62
2024/01/30 08:38:51;;;;;;;13.18;7.90;;;;;;;;;;5102859;27;20723;-62
2024/01/30 08:41:23;;;;;;;14.63;7.35;;;;;;;;;;5089130;27;20052;-58
2024/01/30 08:43:49;;;;;;;13.45;7.35;;;;;;;;;;5102896;27;20067;-62
2024/01/30 08:46:19;;;;;;;16.95;8.80;;;;;;;;;;5103731;27;20036;-62
2024/01/30 08:48:46;;;;;;;13.50;8.13;;;;;;;;;;5103015;27;20048;-62
2024/01/30 08:51:13;;;;;;;14.95;7.97;;;;;;;;;;5087273;27;20605;-60
2024/01/30 08:53:39;;;;;;;13.05;7.78;;;;;;;;;;5101762;28;20052;-60
2024/01/30 08:56:06;;;;;;;17.65;8.00;;;;;;;;;;5101475;27;20506;-61
2024/01/30 08:58:32;;;;;;;12.98;7.75;;;;;;;;;;5104926;27;20082;-61
2024/01/30 09:00:58;;;;;;;18.35;8.63;;;;;;;;;;5097188;27;20418;-62
2024/01/30 09:03:25;;;;;;;22.88;8.20;;;;;;;;;;5102250;27;20052;-61
2024/01/30 09:05:51;;;;;;;12.30;8.35;;;;;;;;;;5102756;27;20060;-61
2024/01/30 09:08:18;;;;;;;15.70;8.00;;;;;;;;;;5113908;27;20495;-61
2024/01/30 09:10:44;;;;;;;13.23;8.23;;;;;;;;;;5096914;27;20063;-61
2024/01/30 09:13:11;;;;;;;15.23;8.35;;;;;;;;;;5119597;27;20220;-61
2024/01/30 09:15:38;;;;;;;15.60;7.35;;;;;;;;;;5103749;27;20063;-62
2024/01/30 09:18:05;;;;;;;13.05;8.15;;;;;;;;;;5100101;27;20062;-61
2024/01/30 09:20:31;;;;;;;11.88;7.45;;;;;;;;;;5089362;27;20632;-61
2024/01/30 09:23:00;;;;;;;15.13;7.97;;;;;;;;;;5097606;27;21016;-62
2024/01/30 09:25:26;;;;;;;17.30;9.50;;;;;;;;;;5103616;28;20052;-61
2024/01/30 09:27:53;;;;;;;14.85;8.55;;;;;;;;;;5103566;27;20665;-61
2024/01/30 09:30:19;;;;;;;17.85;7.40;;;;;;;;;;5102846;27;20161;-62
2024/01/30 09:32:46;;;;;;;19.75;7.97;;;;;;;;;;5112179;27;20154;-62
2024/01/30 09:35:13;;;;;;;13.43;8.05;;;;;;;;;;5085707;28;20063;-62
2024/01/30 09:37:39;;;;;;;18.40;8.95;;;;;;;;;;5101846;27;20549;-61
2024/01/30 09:40:06;;;;;;;16.42;7.80;;;;;;;;;;5105035;27;20056;-63
2024/01/30 09:42:36;;;;;;;14.38;8.18;;;;;;;;;;5094470;27;20052;-60
2024/01/30 09:45:04;;;;;;;13.35;7.90;;;;;;;;;;5100644;27;20054;-62
2024/01/30 09:47:50;;;;;;;18.15;8.02;;;;;;;;;;5091641;27;20106;-62
2024/01/30 09:50:17;;;;;;;16.02;8.10;;;;;;;;;;5101414;28;20058;-62
2024/01/30 09:52:44;;;;;;;11.90;8.07;;;;;;;;;;5101142;27;20048;-61
2024/01/30 09:55:10;;;;;;;19.08;8.52;;;;;;;;;;5103899;28;20389;-59
2024/01/30 09:57:37;;;;;;;14.88;8.73;;;;;;;;;;5108520;27;20583;-62
2024/01/30 10:00:04;;;;;;;14.88;8.65;;;;;;;;;;5104701;27;20105;-63
2024/01/30 10:02:31;;;;;;;15.68;8.38;;;;;;;;;;5105111;27;20052;-62
2024/01/30 10:04:58;;;;;;;14.93;8.35;;;;;;;;;;5104173;28;20076;-62
2024/01/30 10:07:24;;;;;;;15.38;8.38;;;;;;;;;;5104688;27;20055;-62
2024/01/30 10:09:53;;;;;;;12.00;8.15;;;;;;;;;;5105483;27;20392;-61
2024/01/30 10:12:19;;;;;;;15.98;8.43;;;;;;;;;;5104395;27;20453;-62
2024/01/30 10:14:45;;;;;;;13.50;7.70;;;;;;;;;;5104869;27;20550;-62
2024/01/30 10:17:12;;;;;;;17.00;8.05;;;;;;;;;;5105484;27;20548;-62
2024/01/30 10:19:53;;;;;;;10.82;7.70;;;;;;;;;;5092377;27;20412;-60
2024/01/30 10:22:19;;;;;;;14.30;8.43;;;;;;;;;;5103587;27;20147;-62
2024/01/30 10:24:45;;;;;;;11.52;7.90;;;;;;;;;;5106634;28;20050;-62
2024/01/30 10:27:12;;;;;;;14.88;7.75;;;;;;;;;;5105246;27;20058;-62
2024/01/30 10:29:38;;;;;;;15.82;7.90;;;;;;;;;;5098860;28;20105;-62
2024/01/30 10:32:05;;;;;;;17.30;8.38;;;;;;;;;;5096778;27;20048;-62
2024/01/30 10:34:32;;;;;;;11.63;8.68;;;;;;;;;;5120269;27;20491;-58
2024/01/30 10:37:18;;;;;;;14.98;8.38;;;;;;;;;;5104148;27;20139;-62
2024/01/30 10:39:44;;;;;;;15.38;8.38;;;;;;;;;;5104121;27;20052;-62
2024/01/30 10:42:18;;;;;;;12.70;8.07;;;;;;;;;;5104599;27;20052;-62
2024/01/30 10:44:47;;;;;;;14.10;7.28;;;;;;;;;;5104138;27;20056;-62
2024/01/30 10:47:17;;;;;;;16.98;8.02;;;;;;;;;;5104467;27;20656;-62
2024/01/30 10:49:43;;;;;;;14.57;8.15;;;;;;;;;;5104372;27;20529;-61
2024/01/30 10:52:12;;;;;;;15.88;8.27;;;;;;;;;;5103841;27;20130;-62
2024/01/30 10:54:40;;;;;;;16.23;8.48;;;;;;;;;;5103928;27;20063;-62
2024/01/30 10:57:07;;;;;;;16.08;7.97;;;;;;;;;;5103952;27;20090;-63
2024/01/30 10:59:34;;;;;;;9.52;6.93;;;;;;;;;;5104211;27;20114;-63
2024/01/30 11:02:01;;;;;;;13.52;7.68;;;;;;;;;;5104052;27;20114;-62
2024/01/30 11:04:35;;;;;;;11.85;8.02;;;;;;;;;;5099078;28;20059;-62
2024/01/30 11:07:02;;;;;;;11.60;6.18;;;;;;;;;;5103074;27;20055;-63
2024/01/30 11:09:29;;;;;;;12.63;6.97;;;;;;;;;;5101608;28;20348;-63
2024/01/30 11:12:02;;;;;;;12.23;6.15;;;;;;;;;;5103379;27;20147;-63
2024/01/30 11:14:29;;;;;;;10.70;5.80;;;;;;;;;;5081578;27;20052;-63
2024/01/30 11:16:59;;;;;;;9.40;6.07;;;;;;;;;;5102872;27;20055;-63
2024/01/30 11:19:26;;;;;;;9.93;5.35;;;;;;;;;;5104404;27;20135;-63
2024/01/30 11:21:54;;;;;;;11.65;5.10;;;;;;;;;;5103122;27;20052;-61
2024/01/30 11:24:23;;;;;;;6.50;4.68;;;;;;;;;;5104611;27;20139;-62
2024/01/30 11:26:55;;;;;;;6.68;4.72;;;;;;;;;;5104867;27;20072;-63
2024/01/30 11:29:25;;;;;;;8.70;4.75;;;;;;;;;;5103481;27;20056;-63
2024/01/30 11:31:53;;;;;;;9.70;4.55;;;;;;;;;;5104116;27;20562;-63
2024/01/30 11:34:21;;;;;;;8.88;3.45;;;;;;;;;;5103835;27;20082;-63
2024/01/30 11:37:09;;;;;;;5.63;2.90;;;;;;;;;;5104308;27;20502;-62
2024/01/30 11:39:36;;;;;;;5.55;3.20;;;;;;;;;;5104295;27;20056;-61
2024/01/30 11:42:04;;;;;;;9.57;3.53;;;;;;;;;;5103661;27;20588;-63
2024/01/30 11:44:31;;;;;;;8.52;2.80;;;;;;;;;;5103845;27;20063;-62
2024/01/30 11:46:57;;;;;;;3.90;2.00;;;;;;;;;;5103360;27;20047;-63
2024/01/30 11:49:24;;;;;;;5.07;2.33;;;;;;;;;;5103882;27;20056;-63
2024/01/30 11:51:53;;;;;;;4.65;1.95;;;;;;;;;;5102328;28;20052;-62
2024/01/30 11:54:19;;;;;;;8.13;1.95;;;;;;;;;;5103159;27;20086;-63
2024/01/30 11:56:46;;;;;;;6.07;1.90;;;;;;;;;;5102871;27;20052;-63
2024/01/30 11:59:13;;;;;;;4.30;1.95;;;;;;;;;;5103215;27;20601;-63
2024/01/30 12:01:40;;;;;;;4.68;1.70;;;;;;;;;;5088494;28;20044;-63
2024/01/30 12:04:09;;;;;;;4.88;1.70;;;;;;;;;;5102385;27;20060;-63
2024/01/30 12:06:38;;;;;;;2.78;1.77;;;;;;;;;;5091545;28;20055;-63
2024/01/30 12:09:05;;;;;;;5.55;2.03;;;;;;;;;;5101608;27;20529;-63
2024/01/30 12:11:31;;;;;;;6.75;2.35;;;;;;;;;;5104001;27;20831;-62
2024/01/30 12:13:57;;;;;;;4.00;2.05;;;;;;;;;;5100442;27;20497;-63
2024/01/30 12:16:24;;;;;;;3.25;2.10;;;;;;;;;;5083941;28;20114;-62
2024/01/30 12:18:58;;;;;;;5.85;2.45;;;;;;;;;;5091382;27;20048;-63
2024/01/30 12:21:25;;;;;;;4.53;2.28;;;;;;;;;;5085736;28;20118;-63
2024/01/30 12:23:51;;;;;;;4.47;2.67;;;;;;;;;;5099522;27;20558;-62
2024/01/30 12:26:18;;;;;;;5.20;2.67;;;;;;;;;;5102978;27;20587;-63
2024/01/30 12:28:48;;;;;;;8.25;2.80;;;;;;;;;;5092745;27;20134;-63
2024/01/30 12:31:14;;;;;;;4.63;2.50;;;;;;;;;;5100364;27;20509;-61
2024/01/30 12:33:41;;;;;;;6.32;2.72;;;;;;;;;;5102921;27;20409;-63
2024/01/30 12:36:07;;;;;;;9.60;3.33;;;;;;;;;;5102708;27;20638;-63
2024/01/30 12:38:34;;;;;;;5.82;2.25;;;;;;;;;;5104851;27;20048;-63
2024/01/30 12:41:01;;;;;;;6.53;2.20;;;;;;;;;;5102009;27;20059;-62
2024/01/30 12:43:28;;;;;;;6.28;2.22;;;;;;;;;;5100024;27;20075;-63
2024/01/30 12:46:04;;;;;;;6.13;2.70;;;;;;;;;;5082564;28;20048;-64
2024/01/30 12:48:31;;;;;;;5.85;2.45;;;;;;;;;;5096546;27;20048;-63
2024/01/30 12:50:57;;;;;;;4.25;2.22;;;;;;;;;;5102109;27;20052;-64
2024/01/30 12:53:24;;;;;;;6.18;2.58;;;;;;;;;;5102824;27;20048;-63
2024/01/30 12:55:50;;;;;;;5.18;2.50;;;;;;;;;;5102314;27;20509;-63
2024/01/30 12:58:17;;;;;;;4.63;2.33;;;;;;;;;;5102340;27;20048;-64
2024/01/30 13:00:44;;;;;;;8.85;2.53;;;;;;;;;;5096049;28;20075;-62
2024/01/30 13:03:11;;;;;;;4.25;2.33;;;;;;;;;;5089722;27;20139;-63
2024/01/30 13:05:37;;;;;;;6.35;2.72;;;;;;;;;;5091107;27;20148;-63
2024/01/30 13:08:04;;;;;;;5.03;2.60;;;;;;;;;;5096020;27;20053;-62
2024/01/30 13:10:30;;;;;;;7.07;2.65;;;;;;;;;;5102178;27;20079;-62
2024/01/30 13:12:57;;;;;;;3.70;2.20;;;;;;;;;;5097434;27;20051;-63
2024/01/30 13:15:23;;;;;;;3.85;2.20;;;;;;;;;;5122061;27;20055;-62
2024/01/30 13:17:50;;;;;;;3.95;1.77;;;;;;;;;;5113881;27;20597;-60
2024/01/30 13:20:20;;;;;;;3.47;1.58;;;;;;;;;;5101447;27;20606;-62
2024/01/30 13:22:47;;;;;;;2.53;1.27;;;;;;;;;;5097320;27;20067;-64
2024/01/30 13:25:13;;;;;;;2.97;1.20;;;;;;;;;;5100679;28;20075;-63
2024/01/30 13:27:40;;;;;;;2.65;1.10;;;;;;;;;;5102108;27;20183;-61
2024/01/30 13:30:08;;;;;;;4.53;1.52;;;;;;;;;;5096692;27;20053;-61
2024/01/30 13:32:34;;;;;;;4.57;1.10;;;;;;;;;;5096755;27;20151;-62
2024/01/30 13:35:01;;;;;;;1.85;1.08;;;;;;;;;;5104802;27;20137;-62
2024/01/30 13:37:27;;;;;;;3.40;1.38;;;;;;;;;;5099838;27;20048;-62
2024/01/30 13:39:54;;;;;;;2.90;1.10;;;;;;;;;;5089380;27;20052;-63
2024/01/30 13:42:20;;;;;;;4.93;1.42;;;;;;;;;;5096870;27;20052;-62
2024/01/30 13:44:47;;;;;;;9.68;2.10;;;;;;;;;;5093235;27;20546;-63
2024/01/30 13:47:13;;;;;;;5.15;1.13;;;;;;;;;;5096974;27;20083;-62
2024/01/30 13:49:40;;;;;;;4.30;1.55;;;;;;;;;;5107911;27;20156;-63
2024/01/30 13:52:06;;;;;;;2.25;1.52;;;;;;;;;;5093540;27;20048;-61
2024/01/30 13:54:33;;;;;;;2.80;1.63;;;;;;;;;;5103392;27;20055;-62
2024/01/30 13:56:59;;;;;;;5.00;2.22;;;;;;;;;;5095644;27;20542;-63
2024/01/30 13:59:26;;;;;;;4.30;2.03;;;;;;;;;;5104632;27;20660;-62
2024/01/30 14:01:52;;;;;;;5.60;2.05;;;;;;;;;;5104902;27;20524;-62
2024/01/30 14:04:19;;;;;;;6.00;2.38;;;;;;;;;;5103915;27;20540;-64
2024/01/30 14:06:46;;;;;;;6.20;2.10;;;;;;;;;;5104848;27;20055;-64
2024/01/30 14:09:22;;;;;;;5.78;2.50;;;;;;;;;;5105206;27;20071;-63
2024/01/30 14:11:49;;;;;;;4.45;2.00;;;;;;;;;;5102675;27;20103;-63
2024/01/30 14:14:15;;;;;;;5.22;1.90;;;;;;;;;;5095120;28;20542;-62
2024/01/30 14:16:41;;;;;;;6.43;2.55;;;;;;;;;;5104750;27;20079;-62
2024/01/30 14:19:08;;;;;;;5.55;2.47;;;;;;;;;;5088926;27;20136;-63
2024/01/30 14:21:37;;;;;;;4.22;2.70;;;;;;;;;;5087394;27;20053;-63
2024/01/30 14:24:03;;;;;;;5.85;2.45;;;;;;;;;;5104845;27;20493;-63
2024/01/30 14:26:30;;;;;;;4.80;2.35;;;;;;;;;;5087523;27;20056;-62